First Coast — WCR9075 — position and weather

sailwx.info

Track history (hours):
 
Tides and Currents Weather Stations Pressure Air Temp Water Temp Dewpoint Dewpoint Depression Visibility Wind Speed Wind Dir Waves Ship Positions

First Coast

Owner: DANN MARINE TOWING L C, CHESAPEAKE CITY, MD. More information available from US FCC via Universal Licensing System and Coast Guard Vessel Documentation Center.

Last reported at 2015-Mar-01 21:08 UTC. Time now 2015-Mar-02 05:01 UTC.
Position N 39°10' W 076°23'.

; draft 3.5 m.

Type: Tug. MMSI: 367024280.

Date/timePositionNaut miles runAvg speedWind from/ knotsBaromVisibWave heightAir tempDewpointWater temp
2015-Mar-01 21:08N 39°10' W 076°23'1 2.6
2015-Mar-01 20:33N 39°10' W 076°25'5 4.7
2015-Mar-01 19:33N 39°05' W 076°24'8 6.9
2015-Mar-01 18:26N 38°57' W 076°24'7 7.6
2015-Mar-01 17:33N 38°51' W 076°26'49 6.9
2015-Mar-01 10:20N 38°02' W 076°15'5 6.6
2015-Mar-01 09:33N 37°57' W 076°13'3 0.1
2015-Feb-28 04:04N 38°00' W 076°14'4 7.8
2015-Feb-28 03:33N 38°04' W 076°16'53 7.4
2015-Feb-27 20:27N 38°57' W 076°24'10 4.5
2015-Feb-27 18:20N 39°06' W 076°24'5 5.8
2015-Feb-27 17:33N 39°10' W 076°26'9 6.1
2015-Feb-27 16:07N 39°13' W 076°15'5 8.5
2015-Feb-27 15:29N 39°18' W 076°13'6 6.0
2015-Feb-27 14:33N 39°22' W 076°08'3 2.8
2015-Feb-27 13:33N 39°23' W 076°05'3 3.1
2015-Feb-27 12:33N 39°25' W 076°02'9 9.0
2015-Feb-27 11:33N 39°31' W 075°53'9 8.7
2015-Feb-27 10:33N 39°33' W 075°42'7 6.9
2015-Feb-27 09:33N 39°34' W 075°33'5 5.3
2015-Feb-27 08:33N 39°39' W 075°33'7 7.3
2015-Feb-27 07:33N 39°46' W 075°29'4 3.5
2015-Feb-27 06:33N 39°48' W 075°25'0 0.2
2015-Feb-27 05:33N 39°48' W 075°25'0 0.0
2015-Feb-27 04:30N 39°48' W 075°25'0 0.0
2015-Feb-27 03:15N 39°48' W 075°25'0 0.0
2015-Feb-27 02:33N 39°48' W 075°25'0 0.0
2015-Feb-27 01:33N 39°48' W 075°25'0 0.0
2015-Feb-27 00:33N 39°48' W 075°25'0 0.0
2015-Feb-26 23:33N 39°48' W 075°25'0 0.0
2015-Feb-26 22:33N 39°48' W 075°25'0 0.0
2015-Feb-26 21:33N 39°48' W 075°25'0 0.0
2015-Feb-26 20:33N 39°48' W 075°25'0 0.0
2015-Feb-26 19:31N 39°48' W 075°25'0 0.0
2015-Feb-26 18:31N 39°48' W 075°25'0 0.0
2015-Feb-26 17:31N 39°48' W 075°25'0 0.0
2015-Feb-26 16:28N 39°48' W 075°25'0 0.0
2015-Feb-26 15:31N 39°48' W 075°25'0 0.0
2015-Feb-26 14:31N 39°48' W 075°25'0 0.0
2015-Feb-26 13:31N 39°48' W 075°25'0 0.0
2015-Feb-26 12:28N 39°48' W 075°25'0 0.0
2015-Feb-26 11:33N 39°48' W 075°25'0 0.0
2015-Feb-26 10:31N 39°48' W 075°25'0 0.0
2015-Feb-26 09:31N 39°48' W 075°25'0 0.0
2015-Feb-26 08:31N 39°48' W 075°25'0 0.0
2015-Feb-26 07:16N 39°48' W 075°25'6 3.8
2015-Feb-26 05:33N 39°43' W 075°30'8 7.7
2015-Feb-26 04:33N 39°36' W 075°34'7 6.4
2015-Feb-26 03:24N 39°33' W 075°43'7 8.0
2015-Feb-26 02:33N 39°32' W 075°51'8 7.6
2015-Feb-26 01:33N 39°27' W 075°59'7 7.4
2015-Feb-26 00:33N 39°23' W 076°07'7 7.0
2015-Feb-25 23:33N 39°18' W 076°13'11 1.0
2015-Feb-25 13:10N 39°09' W 076°21'1 1.0
2015-Feb-25 12:34N 39°09' W 076°21'1 1.4
2015-Feb-25 11:33N 39°10' W 076°23'2 2.5
2015-Feb-25 10:33N 39°07' W 076°24'5 5.2
2015-Feb-25 09:33N 39°02' W 076°23'5 4.9
2015-Feb-25 08:33N 38°57' W 076°24'6 6.0
2015-Feb-25 07:33N 38°52' W 076°26'54 6.5
2015-Feb-24 23:16N 37°59' W 076°13'6 7.4
2015-Feb-24 22:29N 37°54' W 076°10'8 0.2
2015-Feb-23 12:05N 38°01' W 076°14'610.2
2015-Feb-23 11:32N 38°06' W 076°16'51 9.6
2015-Feb-23 06:13N 38°57' W 076°24'6 9.3
2015-Feb-23 05:33N 39°03' W 076°23'6 6.4
2015-Feb-23 04:33N 39°09' W 076°19'7 6.0
2015-Feb-23 03:27N 39°14' W 076°14'2 1.8
2015-Feb-23 02:33N 39°15' W 076°14'6 5.6
2015-Feb-23 01:33N 39°20' W 076°11'7 6.6
2015-Feb-23 00:33N 39°24' W 076°03'5 5.4
2015-Feb-22 23:33N 39°28' W 075°59'7 7.1
2015-Feb-22 22:34N 39°32' W 075°51'9 9.2
2015-Feb-22 21:34N 39°33' W 075°39'6 6.2
2015-Feb-22 20:34N 39°38' W 075°34'7 7.4
2015-Feb-22 19:34N 39°44' W 075°30'5 5.0
2015-Feb-22 18:32N 39°48' W 075°25'0 0.0
2015-Feb-22 17:31N 39°48' W 075°25'1 0.7
2015-Feb-22 16:34N 39°48' W 075°26'5 5.1
2015-Feb-22 15:34N 39°44' W 075°30'4 4.3
2015-Feb-22 14:33N 39°40' W 075°32'4 3.9
2015-Feb-22 13:34N 39°37' W 075°35'3 3.4
2015-Feb-22 12:34N 39°33' W 075°35'7 6.8
2015-Feb-22 11:33N 39°32' W 075°44'6 6.1
2015-Feb-22 10:33N 39°32' W 075°52'6 5.9
2015-Feb-22 09:33N 39°28' W 075°58'4 4.4
2015-Feb-22 08:34N 39°25' W 076°02'3 2.8
2015-Feb-22 07:33N 39°23' W 076°05'6 5.5
2015-Feb-22 06:30N 39°20' W 076°11'5 4.8
2015-Feb-22 05:32N 39°16' W 076°14'9 1.1
2015-Feb-21 21:13N 39°10' W 076°23'2 2.4
2015-Feb-21 20:21N 39°11' W 076°26'2 1.8
2015-Feb-21 19:27N 39°09' W 076°25'2 2.3
2015-Feb-21 18:33N 39°07' W 076°24'5 4.9
2015-Feb-21 17:33N 39°02' W 076°23'1 0.8
2015-Feb-21 16:33N 39°02' W 076°22'6 5.6
2015-Feb-21 15:33N 38°57' W 076°24'6 6.1
2015-Feb-21 14:31N 38°51' W 076°26'49 6.9
2015-Feb-21 07:21N 38°02' W 076°15'6 7.4
2015-Feb-21 06:33N 37°57' W 076°12'  
Track history (hours):
 
Tides and Currents Weather Stations Pressure Air Temp Water Temp Dewpoint Dewpoint Depression Visibility Wind Speed Wind Dir Waves Ship Positions

First Coast

Owner: DANN MARINE TOWING L C, CHESAPEAKE CITY, MD. More information available from US FCC via Universal Licensing System and Coast Guard Vessel Documentation Center.

Last reported at 2015-Mar-01 21:08 UTC. Time now 2015-Mar-02 05:01 UTC.
Position N 39°10' W 076°23'.

; draft 3.5 m.

Type: Tug. MMSI: 367024280.

Date/timePositionNaut miles runAvg speedWind from/ knotsBaromVisibWave heightAir tempDewpointWater temp
2015-Mar-01 21:08N 39°10' W 076°23'1 2.6
2015-Mar-01 20:33N 39°10' W 076°25'5 4.7
2015-Mar-01 19:33N 39°05' W 076°24'8 6.9
2015-Mar-01 18:26N 38°57' W 076°24'7 7.6
2015-Mar-01 17:33N 38°51' W 076°26'49 6.9
2015-Mar-01 10:20N 38°02' W 076°15'5 6.6
2015-Mar-01 09:33N 37°57' W 076°13'3 0.1
2015-Feb-28 04:04N 38°00' W 076°14'4 7.8
2015-Feb-28 03:33N 38°04' W 076°16'53 7.4
2015-Feb-27 20:27N 38°57' W 076°24'10 4.5
2015-Feb-27 18:20N 39°06' W 076°24'5 5.8
2015-Feb-27 17:33N 39°10' W 076°26'9 6.1
2015-Feb-27 16:07N 39°13' W 076°15'5 8.5
2015-Feb-27 15:29N 39°18' W 076°13'6 6.0
2015-Feb-27 14:33N 39°22' W 076°08'3 2.8
2015-Feb-27 13:33N 39°23' W 076°05'3 3.1
2015-Feb-27 12:33N 39°25' W 076°02'9 9.0
2015-Feb-27 11:33N 39°31' W 075°53'9 8.7
2015-Feb-27 10:33N 39°33' W 075°42'7 6.9
2015-Feb-27 09:33N 39°34' W 075°33'5 5.3
2015-Feb-27 08:33N 39°39' W 075°33'7 7.3
2015-Feb-27 07:33N 39°46' W 075°29'4 3.5
2015-Feb-27 06:33N 39°48' W 075°25'0 0.2
2015-Feb-27 05:33N 39°48' W 075°25'0 0.0
2015-Feb-27 04:30N 39°48' W 075°25'0 0.0
2015-Feb-27 03:15N 39°48' W 075°25'0 0.0
2015-Feb-27 02:33N 39°48' W 075°25'0 0.0
2015-Feb-27 01:33N 39°48' W 075°25'0 0.0
2015-Feb-27 00:33N 39°48' W 075°25'0 0.0
2015-Feb-26 23:33N 39°48' W 075°25'0 0.0
2015-Feb-26 22:33N 39°48' W 075°25'0 0.0
2015-Feb-26 21:33N 39°48' W 075°25'0 0.0
2015-Feb-26 20:33N 39°48' W 075°25'0 0.0
2015-Feb-26 19:31N 39°48' W 075°25'0 0.0
2015-Feb-26 18:31N 39°48' W 075°25'0 0.0
2015-Feb-26 17:31N 39°48' W 075°25'0 0.0
2015-Feb-26 16:28N 39°48' W 075°25'0 0.0
2015-Feb-26 15:31N 39°48' W 075°25'0 0.0
2015-Feb-26 14:31N 39°48' W 075°25'0 0.0
2015-Feb-26 13:31N 39°48' W 075°25'0 0.0
2015-Feb-26 12:28N 39°48' W 075°25'0 0.0
2015-Feb-26 11:33N 39°48' W 075°25'0 0.0
2015-Feb-26 10:31N 39°48' W 075°25'0 0.0
2015-Feb-26 09:31N 39°48' W 075°25'0 0.0
2015-Feb-26 08:31N 39°48' W 075°25'0 0.0
2015-Feb-26 07:16N 39°48' W 075°25'6 3.8
2015-Feb-26 05:33N 39°43' W 075°30'8 7.7
2015-Feb-26 04:33N 39°36' W 075°34'7 6.4
2015-Feb-26 03:24N 39°33' W 075°43'7 8.0
2015-Feb-26 02:33N 39°32' W 075°51'8 7.6
2015-Feb-26 01:33N 39°27' W 075°59'7 7.4
2015-Feb-26 00:33N 39°23' W 076°07'7 7.0
2015-Feb-25 23:33N 39°18' W 076°13'11 1.0
2015-Feb-25 13:10N 39°09' W 076°21'1 1.0
2015-Feb-25 12:34N 39°09' W 076°21'1 1.4
2015-Feb-25 11:33N 39°10' W 076°23'2 2.5
2015-Feb-25 10:33N 39°07' W 076°24'5 5.2
2015-Feb-25 09:33N 39°02' W 076°23'5 4.9
2015-Feb-25 08:33N 38°57' W 076°24'6 6.0
2015-Feb-25 07:33N 38°52' W 076°26'54 6.5
2015-Feb-24 23:16N 37°59' W 076°13'6 7.4
2015-Feb-24 22:29N 37°54' W 076°10'8 0.2
2015-Feb-23 12:05N 38°01' W 076°14'610.2
2015-Feb-23 11:32N 38°06' W 076°16'51 9.6
2015-Feb-23 06:13N 38°57' W 076°24'6 9.3
2015-Feb-23 05:33N 39°03' W 076°23'6 6.4
2015-Feb-23 04:33N 39°09' W 076°19'7 6.0
2015-Feb-23 03:27N 39°14' W 076°14'2 1.8
2015-Feb-23 02:33N 39°15' W 076°14'6 5.6
2015-Feb-23 01:33N 39°20' W 076°11'7 6.6
2015-Feb-23 00:33N 39°24' W 076°03'5 5.4
2015-Feb-22 23:33N 39°28' W 075°59'7 7.1
2015-Feb-22 22:34N 39°32' W 075°51'9 9.2
2015-Feb-22 21:34N 39°33' W 075°39'6 6.2
2015-Feb-22 20:34N 39°38' W 075°34'7 7.4
2015-Feb-22 19:34N 39°44' W 075°30'5 5.0
2015-Feb-22 18:32N 39°48' W 075°25'0 0.0
2015-Feb-22 17:31N 39°48' W 075°25'1 0.7
2015-Feb-22 16:34N 39°48' W 075°26'5 5.1
2015-Feb-22 15:34N 39°44' W 075°30'4 4.3
2015-Feb-22 14:33N 39°40' W 075°32'4 3.9
2015-Feb-22 13:34N 39°37' W 075°35'3 3.4
2015-Feb-22 12:34N 39°33' W 075°35'7 6.8
2015-Feb-22 11:33N 39°32' W 075°44'6 6.1
2015-Feb-22 10:33N 39°32' W 075°52'6 5.9
2015-Feb-22 09:33N 39°28' W 075°58'4 4.4
2015-Feb-22 08:34N 39°25' W 076°02'3 2.8
2015-Feb-22 07:33N 39°23' W 076°05'6 5.5
2015-Feb-22 06:30N 39°20' W 076°11'5 4.8
2015-Feb-22 05:32N 39°16' W 076°14'9 1.1
2015-Feb-21 21:13N 39°10' W 076°23'2 2.4
2015-Feb-21 20:21N 39°11' W 076°26'2 1.8
2015-Feb-21 19:27N 39°09' W 076°25'2 2.3
2015-Feb-21 18:33N 39°07' W 076°24'5 4.9
2015-Feb-21 17:33N 39°02' W 076°23'1 0.8
2015-Feb-21 16:33N 39°02' W 076°22'6 5.6
2015-Feb-21 15:33N 38°57' W 076°24'6 6.1
2015-Feb-21 14:31N 38°51' W 076°26'49 6.9
2015-Feb-21 07:21N 38°02' W 076°15'6 7.4
2015-Feb-21 06:33N 37°57' W 076°12'  

Dump ship's entire track history